Regina Baltica — P3FV4 — position and weather

sailwx.info

Track history (hours):
 
Tides and Currents Weather Stations Pressure Air Temp Water Temp Dewpoint Dewpoint Depression Visibility Wind Speed Wind Dir Waves Ship Positions

Regina Baltica

Last reported at 2018-Jun-18 08:46 UTC. Time now 2018-Jun-18 09:18 UTC.
Position N 35°56' E 000°05'.

Length 145 m; draft 5.5 m.

Type: Ship (hazmat cat A). MMSI: 210976000.

Date/timePositionNaut miles runAvg speedWind from/ knotsBaromVisibWave heightAir tempDewpointWater temp
2018-Jun-18 08:46N 35°56' E 000°05'0 0.0
2018-Jun-18 08:19N 35°56' E 000°05'0 0.2
2018-Jun-18 08:00N 35°56' E 000°05'7 7.7
2018-Jun-18 07:02N 36°04' E 000°04'014.6
2018-Jun-18 07:00N 36°04' E 000°04'1014.2
2018-Jun-18 06:18N 36°14' E 000°06'413.2
2018-Jun-18 06:00N 36°18' E 000°06'713.5
2018-Jun-18 05:30N 36°25' E 000°06'713.7
2018-Jun-18 04:58N 36°32' E 000°07'714.1
2018-Jun-18 04:30N 36°39' E 000°07'714.1
2018-Jun-18 04:00N 36°46' E 000°08'714.2
2018-Jun-18 03:30N 36°53' E 000°09'814.5
2018-Jun-18 02:57N 37°01' E 000°09'715.3
2018-Jun-18 02:30N 37°07' E 000°09'815.5
2018-Jun-18 02:00N 37°15' E 000°10'815.3
2018-Jun-18 01:30N 37°23' E 000°10'815.2
2018-Jun-18 01:00N 37°30' E 000°10'714.3
2018-Jun-18 00:30N 37°37' E 000°13'714.6
2018-Jun-18 00:00N 37°45' E 000°14'714.5
2018-Jun-17 23:30N 37°52' E 000°15'714.6
2018-Jun-17 23:00N 37°59' E 000°15'815.1
2018-Jun-17 22:30N 38°07' E 000°16'1515.3
2018-Jun-17 21:33N 38°21' E 000°17'115.3
2018-Jun-17 21:30N 38°22' E 000°17'815.3
2018-Jun-17 21:00N 38°29' E 000°18'815.3
2018-Jun-17 20:30N 38°37' E 000°19'814.9
2018-Jun-17 19:59N 38°44' E 000°24'4814.8
2018-Jun-17 16:46N 39°22' W 000°12'414.3
2018-Jun-17 16:28N 39°25' W 000°16'3 7.0
2018-Jun-17 16:00N 39°27' W 000°19'0 0.0
2018-Jun-17 15:26N 39°27' W 000°19'0 0.0
2018-Jun-17 14:59N 39°27' W 000°19'0 0.0
2018-Jun-17 14:28N 39°27' W 000°19'0 0.0
2018-Jun-17 13:57N 39°27' W 000°19'0 0.0
2018-Jun-17 13:25N 39°27' W 000°19'0 0.0
2018-Jun-17 13:00N 39°27' W 000°19'0 0.0
2018-Jun-17 12:28N 39°27' W 000°19'0 0.0
2018-Jun-17 11:59N 39°27' W 000°19'0 0.0
2018-Jun-17 11:27N 39°27' W 000°19'0 0.0
2018-Jun-17 10:57N 39°27' W 000°19'0 0.0
2018-Jun-17 10:28N 39°27' W 000°19'0 0.0
2018-Jun-17 09:57N 39°27' W 000°19'0 0.0
2018-Jun-17 09:27N 39°27' W 000°19'0 0.0
2018-Jun-17 09:00N 39°27' W 000°19'0 0.0
2018-Jun-17 08:30N 39°27' W 000°19'0 0.0
2018-Jun-17 07:57N 39°27' W 000°19'0 1.0
2018-Jun-17 07:30N 39°27' W 000°19'4415.1
2018-Jun-17 04:36N 38°53' E 000°18'317.1
2018-Jun-17 04:25N 38°51' E 000°20'817.3
2018-Jun-17 03:59N 38°45' E 000°27'815.1
2018-Jun-17 03:26N 38°37' E 000°24'716.5
2018-Jun-17 03:00N 38°30' E 000°22'816.3
2018-Jun-17 02:30N 38°22' E 000°22'816.5
2018-Jun-17 02:01N 38°14' E 000°20'816.5
2018-Jun-17 01:31N 38°06' E 000°19'816.4
2018-Jun-17 01:00N 37°57' E 000°18'916.9
2018-Jun-17 00:29N 37°49' E 000°17'817.0
2018-Jun-17 00:00N 37°41' E 000°16'817.0
2018-Jun-16 23:30N 37°32' E 000°15'816.8
2018-Jun-16 23:00N 37°24' E 000°14'816.8
2018-Jun-16 22:30N 37°15' E 000°14'816.4
2018-Jun-16 22:00N 37°07' E 000°13'815.0
2018-Jun-16 21:30N 36°60' E 000°12'714.9
2018-Jun-16 21:01N 36°52' E 000°11'714.1
2018-Jun-16 20:31N 36°45' E 000°10'5 9.8
2018-Jun-16 20:00N 36°40' E 000°10'816.1
2018-Jun-16 19:30N 36°32' E 000°08'918.2
2018-Jun-16 19:00N 36°24' E 000°07'918.4
2018-Jun-16 18:31N 36°14' E 000°06'917.8
2018-Jun-16 18:01N 36°05' E 000°05'1014.8
2018-Jun-16 17:22N 35°56' E 000°04'1 1.6
2018-Jun-16 16:59N 35°56' E 000°05'0 0.0
2018-Jun-16 16:20N 35°56' E 000°05'0 0.0
2018-Jun-16 15:59N 35°56' E 000°05'0 0.0
2018-Jun-16 15:30N 35°56' E 000°05'0 0.0
2018-Jun-16 15:00N 35°56' E 000°05'0 0.0
2018-Jun-16 14:30N 35°56' E 000°05'0 0.0
2018-Jun-16 13:56N 35°56' E 000°05'0 0.0
2018-Jun-16 13:20N 35°56' E 000°05'0 0.0
2018-Jun-16 12:57N 35°56' E 000°05'0 0.0
2018-Jun-16 12:25N 35°56' E 000°05'0 0.0
2018-Jun-16 11:56N 35°56' E 000°05'0 0.0
2018-Jun-16 11:30N 35°56' E 000°05'0 0.0
2018-Jun-16 10:57N 35°56' E 000°05'0 0.0
2018-Jun-16 10:27N 35°56' E 000°05'0 0.0
2018-Jun-16 09:54N 35°56' E 000°05'0 0.0
2018-Jun-16 09:29N 35°56' E 000°05'0 0.0
2018-Jun-16 08:59N 35°56' E 000°05'0 0.0
2018-Jun-16 08:26N 35°56' E 000°05'0 0.1
2018-Jun-16 08:00N 35°56' E 000°05'1 2.5
2018-Jun-16 07:30N 35°57' E 000°03'713.1
2018-Jun-16 07:00N 36°03' E 000°04'914.9
2018-Jun-16 06:26N 36°12' E 000°05'614.4
2018-Jun-16 06:00N 36°18' E 000°05'714.6
2018-Jun-16 05:30N 36°25' E 000°06'815.0
2018-Jun-16 05:00N 36°33' E 000°06'714.9
2018-Jun-16 04:30N 36°40' E 000°06'714.6
2018-Jun-16 04:00N 36°47' E 000°08'714.9
2018-Jun-16 03:30N 36°55' E 000°09'815.2
2018-Jun-16 03:01N 37°02' E 000°10'815.2
2018-Jun-16 02:31N 37°10' E 000°10'815.2
2018-Jun-16 02:00N 37°17' E 000°11'715.0
2018-Jun-16 01:31N 37°25' E 000°12'714.6
2018-Jun-16 01:01N 37°32' E 000°12'714.5
2018-Jun-16 00:30N 37°39' E 000°13'714.6
2018-Jun-16 00:00N 37°47' E 000°14'714.9
2018-Jun-15 23:30N 37°54' E 000°14'815.1
2018-Jun-15 23:00N 38°02' E 000°15'815.2
2018-Jun-15 22:29N 38°09' E 000°16'1415.5
2018-Jun-15 21:36N 38°23' E 000°17'115.3
2018-Jun-15 21:30N 38°25' E 000°17'815.4
2018-Jun-15 21:00N 38°32' E 000°18'715.0
2018-Jun-15 20:30N 38°39' E 000°21'713.6
2018-Jun-15 20:00N 38°46' E 000°23'4115.1
2018-Jun-15 17:19N 39°18' W 000°09'515.2
2018-Jun-15 17:00N 39°22' W 000°13'612.2
2018-Jun-15 16:30N 39°26' W 000°19'1 1.7
2018-Jun-15 15:54N 39°27' W 000°19'0 0.0
2018-Jun-15 15:25N 39°27' W 000°19'0 0.0
2018-Jun-15 14:58N 39°27' W 000°19'0 0.0
2018-Jun-15 14:29N 39°27' W 000°19'0 0.0
2018-Jun-15 13:50N 39°27' W 000°19'0 0.0
2018-Jun-15 13:28N 39°27' W 000°19'0 0.0
2018-Jun-15 12:58N 39°27' W 000°19'0 0.0
2018-Jun-15 12:28N 39°27' W 000°19'0 0.0
2018-Jun-15 11:58N 39°27' W 000°19'0 0.0
2018-Jun-15 11:29N 39°27' W 000°19'0 0.0
2018-Jun-15 11:00N 39°27' W 000°19'0 0.0
2018-Jun-15 10:29N 39°27' W 000°19'0 0.0
2018-Jun-15 09:51N 39°27' W 000°19'0 0.0
2018-Jun-15 09:30N 39°27' W 000°19'0 0.0
2018-Jun-15 09:00N 39°27' W 000°19'0 0.0
2018-Jun-15 08:25N 39°27' W 000°19'0 0.0
2018-Jun-15 07:57N 39°27' W 000°19'0 0.0
2018-Jun-15 07:30N 39°27' W 000°19'4814.4
2018-Jun-15 04:09N 38°50' E 000°20'215.6
2018-Jun-15 04:00N 38°48' E 000°22'2914.4
2018-Jun-15 01:58N 38°18' E 000°21'815.9
2018-Jun-15 01:30N 38°11' E 000°20'3116.1
2018-Jun-14 23:35N 37°40' E 000°16'116.3
2018-Jun-14 23:30N 37°39' E 000°16'816.8
2018-Jun-14 23:00N 37°31' E 000°15'817.1
2018-Jun-14 22:30N 37°22' E 000°14'1517.2
2018-Jun-14 21:39N 37°08' E 000°12'217.2
2018-Jun-14 21:30N 37°05' E 000°12'917.2
2018-Jun-14 21:00N 36°57' E 000°11'917.5
2018-Jun-14 20:30N 36°48' E 000°10'917.7
2018-Jun-14 19:59N 36°39' E 000°08'817.6
2018-Jun-14 19:30N 36°30' E 000°08'917.6
2018-Jun-14 19:00N 36°22' E 000°07'26 5.3
2018-Jun-14 14:12N 35°56' E 000°05'0 0.0
2018-Jun-14 13:56N 35°56' E 000°05'0 0.2
2018-Jun-14 13:24N 35°56' E 000°05'54 5.7
2018-Jun-14 03:54N 36°50' E 000°09'614.5
2018-Jun-14 03:30N 36°56' E 000°09'814.6
2018-Jun-14 02:59N 37°03' E 000°10'714.7
2018-Jun-14 02:31N 37°10' E 000°11'714.5
2018-Jun-14 02:00N 37°18' E 000°11'814.3
2018-Jun-14 01:26N 37°26' E 000°12'614.0
2018-Jun-14 01:00N 37°32' E 000°12'714.0
2018-Jun-14 00:29N 37°39' E 000°13'1214.5
2018-Jun-13 23:40N 37°51' E 000°14'1614.8
2018-Jun-13 22:37N 38°06' E 000°16'214.8
2018-Jun-13 22:30N 38°08' E 000°16'1615.0
2018-Jun-13 21:28N 38°23' E 000°18'6113.6
2018-Jun-13 17:01N 39°20' W 000°11'115.3
2018-Jun-13 16:58N 39°20' W 000°11'714.0
2018-Jun-13 16:26N 39°26' W 000°18'2 3.7
2018-Jun-13 15:59N 39°27' W 000°19'0 0.0
2018-Jun-13 15:29N 39°27' W 000°19'0 0.0
2018-Jun-13 14:59N 39°27' W 000°19'0 0.0
2018-Jun-13 14:25N 39°27' W 000°19'0 0.0
2018-Jun-13 14:00N 39°27' W 000°19'0 0.0
2018-Jun-13 13:29N 39°27' W 000°19'0 0.0
2018-Jun-13 13:00N 39°27' W 000°19'0 0.0
2018-Jun-13 12:28N 39°27' W 000°19'0 0.0
2018-Jun-13 11:58N 39°27' W 000°19'0 0.0
2018-Jun-13 11:25N 39°27' W 000°19'0 0.0
2018-Jun-13 10:56N 39°27' W 000°19'0 0.0
2018-Jun-13 10:28N 39°27' W 000°19'0 0.0
2018-Jun-13 10:00N 39°27' W 000°19'0 0.0
2018-Jun-13 09:24N 39°27' W 000°19'0 0.0
2018-Jun-13 09:00N 39°27' W 000°19'0 0.0
2018-Jun-13 08:28N 39°27' W 000°19'0 0.0
2018-Jun-13 07:56N 39°27' W 000°19'1 1.3
2018-Jun-13 07:31N 39°27' W 000°19'10914.6
2018-Jun-13 00:03N 37°41' E 000°16'116.7
2018-Jun-13 00:00N 37°40' E 000°16'816.7
2018-Jun-12 23:30N 37°32' E 000°15'816.7
2018-Jun-12 23:00N 37°24' E 000°14'816.3
2018-Jun-12 22:30N 37°16' E 000°13'1516.4
2018-Jun-12 21:35N 37°01' E 000°11'116.7
2018-Jun-12 21:30N 36°59' E 000°11'816.8
2018-Jun-12 21:00N 36°51' E 000°11'917.2
2018-Jun-12 20:30N 36°42' E 000°10'13 0.8
2018-Jun-12 03:49N 36°55' E 000°09'514.7
2018-Jun-12 03:29N 37°00' E 000°10'1315.0
2018-Jun-12 02:37N 37°13' E 000°11'215.1
2018-Jun-12 02:27N 37°16' E 000°11'715.1
2018-Jun-12 01:59N 37°23' E 000°12'3614.8
2018-Jun-11 23:31N 37°59' E 000°15'415.1
2018-Jun-11 23:16N 38°03' E 000°16'415.2
2018-Jun-11 23:00N 38°07' E 000°16'815.4
2018-Jun-11 22:31N 38°14' E 000°17'1415.5
2018-Jun-11 21:36N 38°29' E 000°18'215.6
2018-Jun-11 21:29N 38°30' E 000°18'1515.0
2018-Jun-11 20:28N 38°45' E 000°24'4615.0
2018-Jun-11 17:22N 39°22' W 000°12'512.2
2018-Jun-11 16:55N 39°25' W 000°18'2 5.2
2018-Jun-11 16:30N 39°27' W 000°19'0 0.0
2018-Jun-11 15:50N 39°27' W 000°19'0 0.0
2018-Jun-11 15:26N 39°27' W 000°19'0 0.0
2018-Jun-11 14:56N 39°27' W 000°19'0 0.0
2018-Jun-11 14:26N 39°27' W 000°19'0 0.0
2018-Jun-11 13:56N 39°27' W 000°19'0 0.0
2018-Jun-11 13:29N 39°27' W 000°19'0 0.0
2018-Jun-11 13:00N 39°27' W 000°19'0 0.0
2018-Jun-11 12:26N 39°27' W 000°19'0 0.0
2018-Jun-11 11:58N 39°27' W 000°19'0 0.0
2018-Jun-11 11:24N 39°27' W 000°19'0 0.0
2018-Jun-11 10:56N 39°27' W 000°19'0 0.0
2018-Jun-11 10:26N 39°27' W 000°19'0 0.0
2018-Jun-11 09:58N 39°27' W 000°19'0 0.0
2018-Jun-11 09:06N 39°27' W 000°19'0 0.0
2018-Jun-11 09:00N 39°27' W 000°19'0 0.0
2018-Jun-11 08:26N 39°27' W 000°19'0 0.0
2018-Jun-11 08:00N 39°27' W 000°19'0 0.4
2018-Jun-11 07:30N 39°27' W 000°19'5 9.8
2018-Jun-11 07:00N 39°24' W 000°14'6415.1
2018-Jun-11 02:47N 38°27' E 000°22'416.1
2018-Jun-11 02:30N 38°22' E 000°21'916.3
2018-Jun-11 01:59N 38°14' E 000°20'816.4
2018-Jun-11 01:30N 38°06' E 000°20'816.5
2018-Jun-11 01:00N 37°58' E 000°19'916.4
2018-Jun-11 00:28N 37°49' E 000°17'816.3
2018-Jun-10 23:59N 37°41' E 000°16'816.7
2018-Jun-10 23:30N 37°33' E 000°16'816.7
2018-Jun-10 23:00N 37°25' E 000°15'917.0
2018-Jun-10 22:30N 37°17' E 000°13'1617.2
2018-Jun-10 21:35N 37°01' E 000°11'116.9
2018-Jun-10 21:30N 36°60' E 000°11'917.1
2018-Jun-10 21:00N 36°51' E 000°10'9 0.5
2018-Jun-10 03:18N 36°60' E 000°10'414.8
2018-Jun-10 03:00N 37°04' E 000°10'714.8
2018-Jun-10 02:30N 37°12' E 000°11'1215.0
2018-Jun-10 01:42N 37°24' E 000°12'314.8
2018-Jun-10 01:30N 37°27' E 000°12'1014.8
2018-Jun-10 00:49N 37°37' E 000°13'2814.8
2018-Jun-09 22:54N 38°05' E 000°16'615.1
2018-Jun-09 22:30N 38°11' E 000°17'1415.3
2018-Jun-09 21:35N 38°25' E 000°18'315.6
2018-Jun-09 21:22N 38°28' E 000°18'5914.3
2018-Jun-09 17:16N 39°22' W 000°12'414.6
2018-Jun-09 16:58N 39°25' W 000°16'3 7.1
2018-Jun-09 16:30N 39°27' W 000°19'0 0.1
2018-Jun-09 15:59N 39°27' W 000°19'0 0.0
2018-Jun-09 15:30N 39°27' W 000°19'0 0.0
2018-Jun-09 14:27N 39°27' W 000°19'0 0.0
2018-Jun-09 13:58N 39°27' W 000°19'0 0.0
2018-Jun-09 13:28N 39°27' W 000°19'0 0.0
2018-Jun-09 12:52N 39°27' W 000°19'0 0.0
2018-Jun-09 12:29N 39°27' W 000°19'0 0.0
2018-Jun-09 11:57N 39°27' W 000°19'0 0.0
2018-Jun-09 11:26N 39°27' W 000°19'0 0.0
2018-Jun-09 10:54N 39°27' W 000°19'0 0.0
2018-Jun-09 10:30N 39°27' W 000°19'0 0.0
2018-Jun-09 09:54N 39°27' W 000°19'0 0.0
2018-Jun-09 09:14N 39°27' W 000°19'0 0.0
2018-Jun-09 08:59N 39°27' W 000°19'0 0.0
2018-Jun-09 08:27N 39°27' W 000°19'0 0.0
2018-Jun-09 07:58N 39°27' W 000°19'0 1.1
2018-Jun-09 07:31N 39°27' W 000°19'6713.6
2018-Jun-09 02:33N 38°28' E 000°22'115.7
2018-Jun-09 02:30N 38°27' E 000°22'915.8
2018-Jun-09 01:58N 38°18' E 000°21'715.8
2018-Jun-09 01:30N 38°11' E 000°20'815.9
2018-Jun-09 01:00N 38°03' E 000°19'816.1
2018-Jun-09 00:30N 37°55' E 000°18'1515.8
2018-Jun-08 23:35N 37°41' E 000°16'116.5
2018-Jun-08 23:30N 37°39' E 000°16'816.4
2018-Jun-08 23:00N 37°31' E 000°15'816.0
2018-Jun-08 22:30N 37°23' E 000°14'917.0
2018-Jun-08 21:58N 37°14' E 000°13'817.3
2018-Jun-08 21:30N 37°06' E 000°12'917.4
2018-Jun-08 21:00N 36°58' E 000°11'917.4
2018-Jun-08 20:30N 36°49' E 000°10'917.5
2018-Jun-08 20:00N 36°40' E 000°09'917.5
2018-Jun-08 19:30N 36°31' E 000°08'1517.6
2018-Jun-08 18:39N 36°17' E 000°07'1217.4
2018-Jun-08 17:59N 36°05' E 000°05'915.3
2018-Jun-08 17:24N 35°56' E 000°04'1 1.9
2018-Jun-08 16:55N 35°56' E 000°05'  
Track history (hours):
 
Tides and Currents Weather Stations Pressure Air Temp Water Temp Dewpoint Dewpoint Depression Visibility Wind Speed Wind Dir Waves Ship Positions

Regina Baltica

Last reported at 2018-Jun-18 08:46 UTC. Time now 2018-Jun-18 09:18 UTC.
Position N 35°56' E 000°05'.

Length 145 m; draft 5.5 m.

Type: Ship (hazmat cat A). MMSI: 210976000.

Date/timePositionNaut miles runAvg speedWind from/ knotsBaromVisibWave heightAir tempDewpointWater temp
2018-Jun-18 08:46N 35°56' E 000°05'0 0.0
2018-Jun-18 08:19N 35°56' E 000°05'0 0.2
2018-Jun-18 08:00N 35°56' E 000°05'7 7.7
2018-Jun-18 07:02N 36°04' E 000°04'014.6
2018-Jun-18 07:00N 36°04' E 000°04'1014.2
2018-Jun-18 06:18N 36°14' E 000°06'413.2
2018-Jun-18 06:00N 36°18' E 000°06'713.5
2018-Jun-18 05:30N 36°25' E 000°06'713.7
2018-Jun-18 04:58N 36°32' E 000°07'714.1
2018-Jun-18 04:30N 36°39' E 000°07'714.1
2018-Jun-18 04:00N 36°46' E 000°08'714.2
2018-Jun-18 03:30N 36°53' E 000°09'814.5
2018-Jun-18 02:57N 37°01' E 000°09'715.3
2018-Jun-18 02:30N 37°07' E 000°09'815.5
2018-Jun-18 02:00N 37°15' E 000°10'815.3
2018-Jun-18 01:30N 37°23' E 000°10'815.2
2018-Jun-18 01:00N 37°30' E 000°10'714.3
2018-Jun-18 00:30N 37°37' E 000°13'714.6
2018-Jun-18 00:00N 37°45' E 000°14'714.5
2018-Jun-17 23:30N 37°52' E 000°15'714.6
2018-Jun-17 23:00N 37°59' E 000°15'815.1
2018-Jun-17 22:30N 38°07' E 000°16'1515.3
2018-Jun-17 21:33N 38°21' E 000°17'115.3
2018-Jun-17 21:30N 38°22' E 000°17'815.3
2018-Jun-17 21:00N 38°29' E 000°18'815.3
2018-Jun-17 20:30N 38°37' E 000°19'814.9
2018-Jun-17 19:59N 38°44' E 000°24'4814.8
2018-Jun-17 16:46N 39°22' W 000°12'414.3
2018-Jun-17 16:28N 39°25' W 000°16'3 7.0
2018-Jun-17 16:00N 39°27' W 000°19'0 0.0
2018-Jun-17 15:26N 39°27' W 000°19'0 0.0
2018-Jun-17 14:59N 39°27' W 000°19'0 0.0
2018-Jun-17 14:28N 39°27' W 000°19'0 0.0
2018-Jun-17 13:57N 39°27' W 000°19'0 0.0
2018-Jun-17 13:25N 39°27' W 000°19'0 0.0
2018-Jun-17 13:00N 39°27' W 000°19'0 0.0
2018-Jun-17 12:28N 39°27' W 000°19'0 0.0
2018-Jun-17 11:59N 39°27' W 000°19'0 0.0
2018-Jun-17 11:27N 39°27' W 000°19'0 0.0
2018-Jun-17 10:57N 39°27' W 000°19'0 0.0
2018-Jun-17 10:28N 39°27' W 000°19'0 0.0
2018-Jun-17 09:57N 39°27' W 000°19'0 0.0
2018-Jun-17 09:27N 39°27' W 000°19'0 0.0
2018-Jun-17 09:00N 39°27' W 000°19'0 0.0
2018-Jun-17 08:30N 39°27' W 000°19'0 0.0
2018-Jun-17 07:57N 39°27' W 000°19'0 1.0
2018-Jun-17 07:30N 39°27' W 000°19'4415.1
2018-Jun-17 04:36N 38°53' E 000°18'317.1
2018-Jun-17 04:25N 38°51' E 000°20'817.3
2018-Jun-17 03:59N 38°45' E 000°27'815.1
2018-Jun-17 03:26N 38°37' E 000°24'716.5
2018-Jun-17 03:00N 38°30' E 000°22'816.3
2018-Jun-17 02:30N 38°22' E 000°22'816.5
2018-Jun-17 02:01N 38°14' E 000°20'816.5
2018-Jun-17 01:31N 38°06' E 000°19'816.4
2018-Jun-17 01:00N 37°57' E 000°18'916.9
2018-Jun-17 00:29N 37°49' E 000°17'817.0
2018-Jun-17 00:00N 37°41' E 000°16'817.0
2018-Jun-16 23:30N 37°32' E 000°15'816.8
2018-Jun-16 23:00N 37°24' E 000°14'816.8
2018-Jun-16 22:30N 37°15' E 000°14'816.4
2018-Jun-16 22:00N 37°07' E 000°13'815.0
2018-Jun-16 21:30N 36°60' E 000°12'714.9
2018-Jun-16 21:01N 36°52' E 000°11'714.1
2018-Jun-16 20:31N 36°45' E 000°10'5 9.8
2018-Jun-16 20:00N 36°40' E 000°10'816.1
2018-Jun-16 19:30N 36°32' E 000°08'918.2
2018-Jun-16 19:00N 36°24' E 000°07'918.4
2018-Jun-16 18:31N 36°14' E 000°06'917.8
2018-Jun-16 18:01N 36°05' E 000°05'1014.8
2018-Jun-16 17:22N 35°56' E 000°04'1 1.6
2018-Jun-16 16:59N 35°56' E 000°05'0 0.0
2018-Jun-16 16:20N 35°56' E 000°05'0 0.0
2018-Jun-16 15:59N 35°56' E 000°05'0 0.0
2018-Jun-16 15:30N 35°56' E 000°05'0 0.0
2018-Jun-16 15:00N 35°56' E 000°05'0 0.0
2018-Jun-16 14:30N 35°56' E 000°05'0 0.0
2018-Jun-16 13:56N 35°56' E 000°05'0 0.0
2018-Jun-16 13:20N 35°56' E 000°05'0 0.0
2018-Jun-16 12:57N 35°56' E 000°05'0 0.0
2018-Jun-16 12:25N 35°56' E 000°05'0 0.0
2018-Jun-16 11:56N 35°56' E 000°05'0 0.0
2018-Jun-16 11:30N 35°56' E 000°05'0 0.0
2018-Jun-16 10:57N 35°56' E 000°05'0 0.0
2018-Jun-16 10:27N 35°56' E 000°05'0 0.0
2018-Jun-16 09:54N 35°56' E 000°05'0 0.0
2018-Jun-16 09:29N 35°56' E 000°05'0 0.0
2018-Jun-16 08:59N 35°56' E 000°05'0 0.0
2018-Jun-16 08:26N 35°56' E 000°05'0 0.1
2018-Jun-16 08:00N 35°56' E 000°05'1 2.5
2018-Jun-16 07:30N 35°57' E 000°03'713.1
2018-Jun-16 07:00N 36°03' E 000°04'914.9
2018-Jun-16 06:26N 36°12' E 000°05'614.4
2018-Jun-16 06:00N 36°18' E 000°05'714.6
2018-Jun-16 05:30N 36°25' E 000°06'815.0
2018-Jun-16 05:00N 36°33' E 000°06'714.9
2018-Jun-16 04:30N 36°40' E 000°06'714.6
2018-Jun-16 04:00N 36°47' E 000°08'714.9
2018-Jun-16 03:30N 36°55' E 000°09'815.2
2018-Jun-16 03:01N 37°02' E 000°10'815.2
2018-Jun-16 02:31N 37°10' E 000°10'815.2
2018-Jun-16 02:00N 37°17' E 000°11'715.0
2018-Jun-16 01:31N 37°25' E 000°12'714.6
2018-Jun-16 01:01N 37°32' E 000°12'714.5
2018-Jun-16 00:30N 37°39' E 000°13'714.6
2018-Jun-16 00:00N 37°47' E 000°14'714.9
2018-Jun-15 23:30N 37°54' E 000°14'815.1
2018-Jun-15 23:00N 38°02' E 000°15'815.2
2018-Jun-15 22:29N 38°09' E 000°16'1415.5
2018-Jun-15 21:36N 38°23' E 000°17'115.3
2018-Jun-15 21:30N 38°25' E 000°17'815.4
2018-Jun-15 21:00N 38°32' E 000°18'715.0
2018-Jun-15 20:30N 38°39' E 000°21'713.6
2018-Jun-15 20:00N 38°46' E 000°23'4115.1
2018-Jun-15 17:19N 39°18' W 000°09'515.2
2018-Jun-15 17:00N 39°22' W 000°13'612.2
2018-Jun-15 16:30N 39°26' W 000°19'1 1.7
2018-Jun-15 15:54N 39°27' W 000°19'0 0.0
2018-Jun-15 15:25N 39°27' W 000°19'0 0.0
2018-Jun-15 14:58N 39°27' W 000°19'0 0.0
2018-Jun-15 14:29N 39°27' W 000°19'0 0.0
2018-Jun-15 13:50N 39°27' W 000°19'0 0.0
2018-Jun-15 13:28N 39°27' W 000°19'0 0.0
2018-Jun-15 12:58N 39°27' W 000°19'0 0.0
2018-Jun-15 12:28N 39°27' W 000°19'0 0.0
2018-Jun-15 11:58N 39°27' W 000°19'0 0.0
2018-Jun-15 11:29N 39°27' W 000°19'0 0.0
2018-Jun-15 11:00N 39°27' W 000°19'0 0.0
2018-Jun-15 10:29N 39°27' W 000°19'0 0.0
2018-Jun-15 09:51N 39°27' W 000°19'0 0.0
2018-Jun-15 09:30N 39°27' W 000°19'0 0.0
2018-Jun-15 09:00N 39°27' W 000°19'0 0.0
2018-Jun-15 08:25N 39°27' W 000°19'0 0.0
2018-Jun-15 07:57N 39°27' W 000°19'0 0.0
2018-Jun-15 07:30N 39°27' W 000°19'4814.4
2018-Jun-15 04:09N 38°50' E 000°20'215.6
2018-Jun-15 04:00N 38°48' E 000°22'2914.4
2018-Jun-15 01:58N 38°18' E 000°21'815.9
2018-Jun-15 01:30N 38°11' E 000°20'3116.1
2018-Jun-14 23:35N 37°40' E 000°16'116.3
2018-Jun-14 23:30N 37°39' E 000°16'816.8
2018-Jun-14 23:00N 37°31' E 000°15'817.1
2018-Jun-14 22:30N 37°22' E 000°14'1517.2
2018-Jun-14 21:39N 37°08' E 000°12'217.2
2018-Jun-14 21:30N 37°05' E 000°12'917.2
2018-Jun-14 21:00N 36°57' E 000°11'917.5
2018-Jun-14 20:30N 36°48' E 000°10'917.7
2018-Jun-14 19:59N 36°39' E 000°08'817.6
2018-Jun-14 19:30N 36°30' E 000°08'917.6
2018-Jun-14 19:00N 36°22' E 000°07'26 5.3
2018-Jun-14 14:12N 35°56' E 000°05'0 0.0
2018-Jun-14 13:56N 35°56' E 000°05'0 0.2
2018-Jun-14 13:24N 35°56' E 000°05'54 5.7
2018-Jun-14 03:54N 36°50' E 000°09'614.5
2018-Jun-14 03:30N 36°56' E 000°09'814.6
2018-Jun-14 02:59N 37°03' E 000°10'714.7
2018-Jun-14 02:31N 37°10' E 000°11'714.5
2018-Jun-14 02:00N 37°18' E 000°11'814.3
2018-Jun-14 01:26N 37°26' E 000°12'614.0
2018-Jun-14 01:00N 37°32' E 000°12'714.0
2018-Jun-14 00:29N 37°39' E 000°13'1214.5
2018-Jun-13 23:40N 37°51' E 000°14'1614.8
2018-Jun-13 22:37N 38°06' E 000°16'214.8
2018-Jun-13 22:30N 38°08' E 000°16'1615.0
2018-Jun-13 21:28N 38°23' E 000°18'6113.6
2018-Jun-13 17:01N 39°20' W 000°11'115.3
2018-Jun-13 16:58N 39°20' W 000°11'714.0
2018-Jun-13 16:26N 39°26' W 000°18'2 3.7
2018-Jun-13 15:59N 39°27' W 000°19'0 0.0
2018-Jun-13 15:29N 39°27' W 000°19'0 0.0
2018-Jun-13 14:59N 39°27' W 000°19'0 0.0
2018-Jun-13 14:25N 39°27' W 000°19'0 0.0
2018-Jun-13 14:00N 39°27' W 000°19'0 0.0
2018-Jun-13 13:29N 39°27' W 000°19'0 0.0
2018-Jun-13 13:00N 39°27' W 000°19'0 0.0
2018-Jun-13 12:28N 39°27' W 000°19'0 0.0
2018-Jun-13 11:58N 39°27' W 000°19'0 0.0
2018-Jun-13 11:25N 39°27' W 000°19'0 0.0
2018-Jun-13 10:56N 39°27' W 000°19'0 0.0
2018-Jun-13 10:28N 39°27' W 000°19'0 0.0
2018-Jun-13 10:00N 39°27' W 000°19'0 0.0
2018-Jun-13 09:24N 39°27' W 000°19'0 0.0
2018-Jun-13 09:00N 39°27' W 000°19'0 0.0
2018-Jun-13 08:28N 39°27' W 000°19'0 0.0
2018-Jun-13 07:56N 39°27' W 000°19'1 1.3
2018-Jun-13 07:31N 39°27' W 000°19'10914.6
2018-Jun-13 00:03N 37°41' E 000°16'116.7
2018-Jun-13 00:00N 37°40' E 000°16'816.7
2018-Jun-12 23:30N 37°32' E 000°15'816.7
2018-Jun-12 23:00N 37°24' E 000°14'816.3
2018-Jun-12 22:30N 37°16' E 000°13'1516.4
2018-Jun-12 21:35N 37°01' E 000°11'116.7
2018-Jun-12 21:30N 36°59' E 000°11'816.8
2018-Jun-12 21:00N 36°51' E 000°11'917.2
2018-Jun-12 20:30N 36°42' E 000°10'13 0.8
2018-Jun-12 03:49N 36°55' E 000°09'514.7
2018-Jun-12 03:29N 37°00' E 000°10'1315.0
2018-Jun-12 02:37N 37°13' E 000°11'215.1
2018-Jun-12 02:27N 37°16' E 000°11'715.1
2018-Jun-12 01:59N 37°23' E 000°12'3614.8
2018-Jun-11 23:31N 37°59' E 000°15'415.1
2018-Jun-11 23:16N 38°03' E 000°16'415.2
2018-Jun-11 23:00N 38°07' E 000°16'815.4
2018-Jun-11 22:31N 38°14' E 000°17'1415.5
2018-Jun-11 21:36N 38°29' E 000°18'215.6
2018-Jun-11 21:29N 38°30' E 000°18'1515.0
2018-Jun-11 20:28N 38°45' E 000°24'4615.0
2018-Jun-11 17:22N 39°22' W 000°12'512.2
2018-Jun-11 16:55N 39°25' W 000°18'2 5.2
2018-Jun-11 16:30N 39°27' W 000°19'0 0.0
2018-Jun-11 15:50N 39°27' W 000°19'0 0.0
2018-Jun-11 15:26N 39°27' W 000°19'0 0.0
2018-Jun-11 14:56N 39°27' W 000°19'0 0.0
2018-Jun-11 14:26N 39°27' W 000°19'0 0.0
2018-Jun-11 13:56N 39°27' W 000°19'0 0.0
2018-Jun-11 13:29N 39°27' W 000°19'0 0.0
2018-Jun-11 13:00N 39°27' W 000°19'0 0.0
2018-Jun-11 12:26N 39°27' W 000°19'0 0.0
2018-Jun-11 11:58N 39°27' W 000°19'0 0.0
2018-Jun-11 11:24N 39°27' W 000°19'0 0.0
2018-Jun-11 10:56N 39°27' W 000°19'0 0.0
2018-Jun-11 10:26N 39°27' W 000°19'0 0.0
2018-Jun-11 09:58N 39°27' W 000°19'0 0.0
2018-Jun-11 09:06N 39°27' W 000°19'0 0.0
2018-Jun-11 09:00N 39°27' W 000°19'0 0.0
2018-Jun-11 08:26N 39°27' W 000°19'0 0.0
2018-Jun-11 08:00N 39°27' W 000°19'0 0.4
2018-Jun-11 07:30N 39°27' W 000°19'5 9.8
2018-Jun-11 07:00N 39°24' W 000°14'6415.1
2018-Jun-11 02:47N 38°27' E 000°22'416.1
2018-Jun-11 02:30N 38°22' E 000°21'916.3
2018-Jun-11 01:59N 38°14' E 000°20'816.4
2018-Jun-11 01:30N 38°06' E 000°20'816.5
2018-Jun-11 01:00N 37°58' E 000°19'916.4
2018-Jun-11 00:28N 37°49' E 000°17'816.3
2018-Jun-10 23:59N 37°41' E 000°16'816.7
2018-Jun-10 23:30N 37°33' E 000°16'816.7
2018-Jun-10 23:00N 37°25' E 000°15'917.0
2018-Jun-10 22:30N 37°17' E 000°13'1617.2
2018-Jun-10 21:35N 37°01' E 000°11'116.9
2018-Jun-10 21:30N 36°60' E 000°11'917.1
2018-Jun-10 21:00N 36°51' E 000°10'9 0.5
2018-Jun-10 03:18N 36°60' E 000°10'414.8
2018-Jun-10 03:00N 37°04' E 000°10'714.8
2018-Jun-10 02:30N 37°12' E 000°11'1215.0
2018-Jun-10 01:42N 37°24' E 000°12'314.8
2018-Jun-10 01:30N 37°27' E 000°12'1014.8
2018-Jun-10 00:49N 37°37' E 000°13'2814.8
2018-Jun-09 22:54N 38°05' E 000°16'615.1
2018-Jun-09 22:30N 38°11' E 000°17'1415.3
2018-Jun-09 21:35N 38°25' E 000°18'315.6
2018-Jun-09 21:22N 38°28' E 000°18'5914.3
2018-Jun-09 17:16N 39°22' W 000°12'414.6
2018-Jun-09 16:58N 39°25' W 000°16'3 7.1
2018-Jun-09 16:30N 39°27' W 000°19'0 0.1
2018-Jun-09 15:59N 39°27' W 000°19'0 0.0
2018-Jun-09 15:30N 39°27' W 000°19'0 0.0
2018-Jun-09 14:27N 39°27' W 000°19'0 0.0
2018-Jun-09 13:58N 39°27' W 000°19'0 0.0
2018-Jun-09 13:28N 39°27' W 000°19'0 0.0
2018-Jun-09 12:52N 39°27' W 000°19'0 0.0
2018-Jun-09 12:29N 39°27' W 000°19'0 0.0
2018-Jun-09 11:57N 39°27' W 000°19'0 0.0
2018-Jun-09 11:26N 39°27' W 000°19'0 0.0
2018-Jun-09 10:54N 39°27' W 000°19'0 0.0
2018-Jun-09 10:30N 39°27' W 000°19'0 0.0
2018-Jun-09 09:54N 39°27' W 000°19'0 0.0
2018-Jun-09 09:14N 39°27' W 000°19'0 0.0
2018-Jun-09 08:59N 39°27' W 000°19'0 0.0
2018-Jun-09 08:27N 39°27' W 000°19'0 0.0
2018-Jun-09 07:58N 39°27' W 000°19'0 1.1
2018-Jun-09 07:31N 39°27' W 000°19'6713.6
2018-Jun-09 02:33N 38°28' E 000°22'115.7
2018-Jun-09 02:30N 38°27' E 000°22'915.8
2018-Jun-09 01:58N 38°18' E 000°21'715.8
2018-Jun-09 01:30N 38°11' E 000°20'815.9
2018-Jun-09 01:00N 38°03' E 000°19'816.1
2018-Jun-09 00:30N 37°55' E 000°18'1515.8
2018-Jun-08 23:35N 37°41' E 000°16'116.5
2018-Jun-08 23:30N 37°39' E 000°16'816.4
2018-Jun-08 23:00N 37°31' E 000°15'816.0
2018-Jun-08 22:30N 37°23' E 000°14'917.0
2018-Jun-08 21:58N 37°14' E 000°13'817.3
2018-Jun-08 21:30N 37°06' E 000°12'917.4
2018-Jun-08 21:00N 36°58' E 000°11'917.4
2018-Jun-08 20:30N 36°49' E 000°10'917.5
2018-Jun-08 20:00N 36°40' E 000°09'917.5
2018-Jun-08 19:30N 36°31' E 000°08'1517.6
2018-Jun-08 18:39N 36°17' E 000°07'1217.4
2018-Jun-08 17:59N 36°05' E 000°05'915.3
2018-Jun-08 17:24N 35°56' E 000°04'1 1.9
2018-Jun-08 16:55N 35°56' E 000°05'  

Dump ship's entire track history